createdAt,value
2017-11-01T00:00:48.140Z,7.47
2017-11-01T00:03:15.428Z,7.03
2017-11-01T00:05:42.589Z,6.95
2017-11-01T00:08:09.777Z,7.37
2017-11-01T00:10:36.229Z,7.62
2017-11-01T00:13:03.501Z,7.30
2017-11-01T00:15:30.774Z,7.10
2017-11-01T00:17:57.957Z,7.30
2017-11-01T00:20:24.392Z,7.20
2017-11-01T00:22:51.648Z,7.70
2017-11-01T00:25:18.116Z,7.30
2017-11-01T00:27:44.546Z,7.80
2017-11-01T00:30:11.018Z,7.17
2017-11-01T00:32:37.462Z,7.60
2017-11-01T00:35:03.925Z,7.20
2017-11-01T00:37:30.398Z,6.90
2017-11-01T00:39:57.610Z,7.10
2017-11-01T00:42:24.025Z,7.15
2017-11-01T00:44:51.211Z,7.12
2017-11-01T00:47:17.693Z,7.28
2017-11-01T00:49:44.183Z,6.82
2017-11-01T00:52:10.580Z,6.70
2017-11-01T00:54:37.865Z,7.05
2017-11-01T00:57:04.417Z,7.10
2017-11-01T00:59:30.863Z,6.60
2017-11-01T01:01:58.028Z,7.37
2017-11-01T01:04:24.495Z,6.80
2017-11-01T01:06:51.654Z,6.50
2017-11-01T01:09:18.130Z,6.70
2017-11-01T01:11:45.321Z,6.45
2017-11-01T01:14:11.862Z,6.35
2017-11-01T01:16:38.272Z,6.57
2017-11-01T01:19:04.752Z,6.75
2017-11-01T01:21:31.230Z,6.60
2017-11-01T01:23:58.502Z,6.50
2017-11-01T01:26:25.712Z,6.47
2017-11-01T01:28:52.238Z,6.85
2017-11-01T01:31:18.792Z,7.20
2017-11-01T01:33:46.070Z,6.93
2017-11-01T01:36:12.629Z,6.85
2017-11-01T01:38:39.053Z,6.50
2017-11-01T01:41:06.297Z,6.80
2017-11-01T01:43:32.811Z,7.25
2017-11-01T01:46:00.633Z,7.10
2017-11-01T01:48:27.156Z,7.43
2017-11-01T01:50:54.354Z,6.70
2017-11-01T01:53:23.335Z,7.25
2017-11-01T01:55:50.616Z,6.90
2017-11-01T01:58:17.173Z,7.30
2017-11-01T02:00:44.451Z,7.75
2017-11-01T02:03:10.989Z,6.80
2017-11-01T02:05:38.287Z,6.72
2017-11-01T02:08:04.840Z,6.75
2017-11-01T02:10:32.216Z,7.17
2017-11-01T02:12:59.426Z,7.07
2017-11-01T02:15:25.874Z,6.93
2017-11-01T02:17:52.322Z,7.80
2017-11-01T02:20:18.862Z,7.30
2017-11-01T02:22:45.519Z,7.22
2017-11-01T02:25:12.034Z,6.80
2017-11-01T02:27:38.538Z,7.30
2017-11-01T02:30:05.076Z,7.22
2017-11-01T02:32:32.306Z,7.22
2017-11-01T02:34:59.027Z,6.75
2017-11-01T02:37:26.308Z,6.27
2017-11-01T02:39:52.894Z,6.57
2017-11-01T02:42:19.522Z,7.27
2017-11-01T02:44:46.810Z,6.35
2017-11-01T02:47:13.341Z,6.95
2017-11-01T02:49:40.732Z,6.95
2017-11-01T02:52:08.024Z,6.20
2017-11-01T02:54:34.672Z,7.20
2017-11-01T02:57:01.302Z,6.40
2017-11-01T02:59:27.988Z,6.70
2017-11-01T03:01:55.364Z,6.50
2017-11-01T03:04:22.620Z,6.83
2017-11-01T03:06:50.016Z,6.40
2017-11-01T03:09:17.257Z,6.07
2017-11-01T03:11:43.851Z,6.47
2017-11-01T03:14:10.508Z,6.70
2017-11-01T03:16:37.809Z,5.78
2017-11-01T03:19:04.546Z,6.30
2017-11-01T03:21:31.921Z,6.10
2017-11-01T03:23:59.224Z,6.20
2017-11-01T03:26:25.857Z,6.00
2017-11-01T03:28:53.146Z,5.60
2017-11-01T03:31:19.653Z,5.72
2017-11-01T03:33:46.229Z,6.30
2017-11-01T03:36:12.760Z,5.30
2017-11-01T03:38:39.264Z,6.13
2017-11-01T03:41:06.552Z,6.00
2017-11-01T03:43:33.206Z,6.37
2017-11-01T03:45:59.731Z,6.28
2017-11-01T03:48:26.421Z,6.10
2017-11-01T03:50:53.079Z,6.50
2017-11-01T03:53:19.740Z,5.82
2017-11-01T03:55:46.285Z,5.70
2017-11-01T03:58:13.630Z,6.18
2017-11-01T04:00:40.232Z,6.00
2017-11-01T04:03:07.508Z,5.90
2017-11-01T04:05:34.779Z,5.87
2017-11-01T04:08:02.067Z,5.90
2017-11-01T04:10:28.635Z,6.10
2017-11-01T04:12:55.280Z,6.00
2017-11-01T04:15:21.784Z,6.28
2017-11-01T04:17:48.283Z,6.30
2017-11-01T04:20:16.589Z,6.10
2017-11-01T04:22:43.109Z,6.60
2017-11-01T04:25:09.580Z,6.55
2017-11-01T04:27:36.263Z,6.55
2017-11-01T04:30:02.923Z,6.75
2017-11-01T04:32:29.583Z,7.45
2017-11-01T04:34:56.973Z,7.00
2017-11-01T04:37:23.620Z,6.60
2017-11-01T04:39:50.872Z,7.10
2017-11-01T04:42:18.185Z,7.10
2017-11-01T04:44:44.752Z,7.32
2017-11-01T04:47:11.395Z,7.30
2017-11-01T04:49:38.050Z,7.30
2017-11-01T04:52:07.370Z,7.35
2017-11-01T04:54:34.029Z,6.90
2017-11-01T04:57:03.659Z,7.20
2017-11-01T04:59:30.318Z,6.60
2017-11-01T05:01:57.594Z,6.10
2017-11-01T05:04:24.882Z,6.73
2017-11-01T05:06:51.531Z,6.82
2017-11-01T05:09:18.087Z,6.72
2017-11-01T05:11:44.607Z,6.60
2017-11-01T05:14:17.444Z,6.90
2017-11-01T05:16:44.101Z,6.87
2017-11-01T05:19:11.479Z,7.28
2017-11-01T05:21:38.840Z,7.30
2017-11-01T05:24:06.128Z,6.65
2017-11-01T05:26:33.380Z,7.30
2017-11-01T05:29:00.849Z,7.07
2017-11-01T05:31:28.121Z,7.00
2017-11-01T05:33:56.146Z,7.13
2017-11-01T05:36:23.458Z,7.00
2017-11-01T05:38:50.002Z,7.10
2017-11-01T05:41:16.745Z,7.20
2017-11-01T05:43:44.214Z,7.70
2017-11-01T05:46:11.505Z,7.78
2017-11-01T05:48:38.157Z,7.78
2017-11-01T05:51:05.433Z,7.93
2017-11-01T05:53:31.978Z,7.70
2017-11-01T05:55:59.272Z,8.30
2017-11-01T05:58:25.926Z,7.68
2017-11-01T06:00:52.520Z,7.55
2017-11-01T06:03:19.156Z,8.13
2017-11-01T06:05:45.711Z,9.60
2017-11-01T06:08:15.329Z,8.10
2017-11-01T06:10:41.944Z,7.80
2017-11-01T06:13:08.550Z,7.62
2017-11-01T06:15:35.955Z,7.80
2017-11-01T06:18:02.535Z,8.00
2017-11-01T06:20:29.148Z,7.75
2017-11-01T06:22:55.807Z,8.07
2017-11-01T06:25:22.473Z,8.00
2017-11-01T06:27:48.971Z,8.10
2017-11-01T06:30:15.485Z,8.60
2017-11-01T06:32:42.146Z,9.40
2017-11-01T06:35:09.416Z,8.13
2017-11-01T06:37:36.690Z,7.20
2017-11-01T06:40:03.968Z,7.90
2017-11-01T06:42:30.624Z,7.20
2017-11-01T06:44:58.002Z,7.62
2017-11-01T06:47:24.574Z,7.15
2017-11-01T06:49:51.219Z,6.50
2017-11-01T06:52:18.598Z,7.20
2017-11-01T06:54:45.733Z,6.28
2017-11-01T06:57:12.249Z,6.90
2017-11-01T06:59:38.786Z,6.20
2017-11-01T07:02:05.343Z,6.55
2017-11-01T07:04:32.597Z,6.30
2017-11-01T07:06:59.822Z,6.47
2017-11-01T07:09:26.347Z,6.10
2017-11-01T07:11:52.891Z,5.90
2017-11-01T07:14:20.181Z,6.87
2017-11-01T07:16:47.459Z,6.80
2017-11-01T07:19:14.012Z,6.60
2017-11-01T07:21:41.287Z,6.40
2017-11-01T07:24:07.950Z,6.90
2017-11-01T07:26:34.427Z,6.75
2017-11-01T07:29:01.066Z,6.43
2017-11-01T07:31:28.263Z,6.53
2017-11-01T07:33:54.707Z,7.70
2017-11-01T07:36:21.133Z,6.30
2017-11-01T07:38:48.328Z,6.30
2017-11-01T07:41:14.985Z,6.30
2017-11-01T07:43:41.511Z,6.30
2017-11-01T07:46:08.103Z,6.35
2017-11-01T07:48:34.657Z,6.30
2017-11-01T07:51:01.811Z,6.03
2017-11-01T07:53:29.102Z,6.50
2017-11-01T07:55:56.773Z,7.07
2017-11-01T07:58:23.968Z,6.90
2017-11-01T08:00:50.519Z,9.30
2017-11-01T08:03:16.997Z,7.70
2017-11-01T08:05:43.541Z,7.55
2017-11-01T08:08:09.993Z,8.10
2017-11-01T08:10:36.438Z,8.43
2017-11-01T08:13:03.617Z,7.95
2017-11-01T08:15:30.899Z,8.07
2017-11-01T08:17:57.451Z,8.10
2017-11-01T08:20:25.030Z,8.10
2017-11-01T08:22:52.305Z,8.00
2017-11-01T08:25:19.580Z,8.15
2017-11-01T08:27:46.738Z,8.45
2017-11-01T08:30:13.930Z,123.03
2017-11-01T08:32:40.405Z,9.82
2017-11-01T08:35:07.062Z,11.40
2017-11-01T08:37:33.770Z,10.95
2017-11-01T08:40:00.294Z,10.00
2017-11-01T08:42:26.820Z,11.30
2017-11-01T08:44:54.159Z,8.70
2017-11-01T08:47:20.683Z,8.90
2017-11-01T08:49:47.175Z,8.70
2017-11-01T08:52:13.695Z,9.40
2017-11-01T08:54:40.184Z,10.00
2017-11-01T08:57:06.668Z,10.10
2017-11-01T08:59:33.958Z,10.27
2017-11-01T09:02:00.514Z,9.85
2017-11-01T09:04:27.726Z,9.90
2017-11-01T09:06:54.259Z,9.93
2017-11-01T09:09:20.713Z,9.32
2017-11-01T09:11:47.258Z,10.30
2017-11-01T09:14:14.458Z,10.38
2017-11-01T09:16:41.678Z,10.05
2017-11-01T09:19:08.263Z,10.10
2017-11-01T09:21:34.713Z,10.63
2017-11-01T09:24:02.105Z,10.98
2017-11-01T09:26:28.656Z,14.35
2017-11-01T09:28:55.145Z,11.70
2017-11-01T09:31:21.633Z,11.70
2017-11-01T09:33:48.071Z,12.15
2017-11-01T09:36:14.583Z,11.43
2017-11-01T09:38:41.855Z,27.55
2017-11-01T09:41:09.017Z,12.30
2017-11-01T09:43:36.213Z,12.27
2017-11-01T09:46:02.861Z,11.70
2017-11-01T09:48:30.134Z,12.40
2017-11-01T09:50:57.339Z,11.80
2017-11-01T09:53:23.864Z,11.83
2017-11-01T09:55:51.140Z,12.20
2017-11-01T09:58:18.339Z,11.77
2017-11-01T10:00:45.435Z,11.98
2017-11-01T10:03:11.940Z,11.65
2017-11-01T10:05:39.214Z,11.63
2017-11-01T10:08:06.420Z,12.23
2017-11-01T10:10:32.944Z,11.75
2017-11-01T10:13:00.150Z,11.07
2017-11-01T10:15:26.596Z,11.20
2017-11-01T10:17:53.041Z,10.95
2017-11-01T10:20:19.532Z,11.38
2017-11-01T10:22:46.044Z,10.60
2017-11-01T10:25:13.319Z,9.90
2017-11-01T10:27:39.882Z,9.70
2017-11-01T10:30:06.394Z,9.50
2017-11-01T10:32:33.003Z,9.75
2017-11-01T10:34:59.453Z,9.20
2017-11-01T10:37:27.950Z,10.55
2017-11-01T10:39:55.229Z,10.13
2017-11-01T10:42:21.681Z,9.80
2017-11-01T10:44:48.832Z,10.05
2017-11-01T10:47:15.295Z,11.50
2017-11-01T10:49:43.141Z,10.70
2017-11-01T10:52:09.661Z,13.07
2017-11-01T10:54:36.213Z,9.90
2017-11-01T10:57:03.488Z,14.23
2017-11-01T10:59:30.762Z,12.27
2017-11-01T11:01:58.040Z,11.43
2017-11-01T11:04:24.593Z,11.15
2017-11-01T11:06:51.869Z,11.60
2017-11-01T11:09:19.042Z,11.82
2017-11-01T11:11:45.498Z,10.73
2017-11-01T11:14:12.771Z,9.70
2017-11-01T11:16:40.005Z,10.77
2017-11-01T11:19:06.502Z,10.00
2017-11-01T11:21:33.164Z,10.05
2017-11-01T11:24:00.438Z,10.68
2017-11-01T11:26:26.912Z,10.40
2017-11-01T11:28:53.450Z,10.43
2017-11-01T11:31:20.693Z,10.15
2017-11-01T11:33:47.174Z,10.00
2017-11-01T11:36:14.460Z,11.10
2017-11-01T11:38:41.015Z,15.85
2017-11-01T11:41:08.222Z,15.85
2017-11-01T11:43:34.740Z,14.20
2017-11-01T11:46:02.022Z,16.95
2017-11-01T11:48:29.299Z,25.50
2017-11-01T11:50:55.954Z,19.40
2017-11-01T11:53:23.230Z,11.43
2017-11-01T11:55:49.892Z,15.23
2017-11-01T11:58:16.553Z,12.45
2017-11-01T12:00:44.421Z,11.02
2017-11-01T12:03:11.715Z,11.67
2017-11-01T12:05:38.212Z,10.02
2017-11-01T12:08:04.829Z,9.77
2017-11-01T12:10:32.103Z,9.50
2017-11-01T12:12:59.378Z,9.93
2017-11-01T12:15:26.628Z,11.20
2017-11-01T12:17:53.876Z,11.07
2017-11-01T12:20:20.392Z,15.02
2017-11-01T12:22:47.047Z,18.08
2017-11-01T12:25:13.709Z,27.70
2017-11-01T12:27:40.203Z,20.62
2017-11-01T12:30:06.686Z,22.67
2017-11-01T12:32:33.588Z,30.10
2017-11-01T12:35:00.250Z,16.52
2017-11-01T12:37:26.714Z,18.48
2017-11-01T12:39:53.196Z,14.02
2017-11-01T12:42:19.731Z,15.00
2017-11-01T12:44:46.274Z,14.40
2017-11-01T12:47:12.834Z,13.63
2017-11-01T12:49:39.660Z,13.27
2017-11-01T12:52:06.873Z,14.18
2017-11-01T12:54:33.429Z,13.93
2017-11-01T12:57:00.709Z,13.52
2017-11-01T12:59:27.891Z,14.30
2017-11-01T13:01:54.438Z,13.98
2017-11-01T13:04:20.992Z,15.53
2017-11-01T13:06:47.553Z,14.77
2017-11-01T13:09:14.526Z,18.00
2017-11-01T13:11:41.487Z,19.77
2017-11-01T13:14:08.647Z,16.80
2017-11-01T13:16:35.933Z,17.10
2017-11-01T13:19:02.605Z,15.38
2017-11-01T13:21:29.119Z,16.87
2017-11-01T13:23:55.710Z,17.05
2017-11-01T13:26:22.269Z,16.65
2017-11-01T13:28:49.510Z,15.85
2017-11-01T13:31:15.994Z,16.17
2017-11-01T13:33:43.314Z,15.82
2017-11-01T13:36:09.793Z,15.30
2017-11-01T13:38:36.288Z,15.45
2017-11-01T13:41:03.665Z,16.35
2017-11-01T13:43:30.905Z,14.02
2017-11-01T13:45:57.496Z,16.93
2017-11-01T13:48:24.734Z,14.82
2017-11-01T13:50:51.232Z,14.63
2017-11-01T13:53:17.733Z,14.30
2017-11-01T13:55:44.654Z,19.83
2017-11-01T13:58:11.135Z,18.30
2017-11-01T14:00:37.655Z,15.45
2017-11-01T14:03:05.553Z,22.42
2017-11-01T14:05:32.115Z,16.65
2017-11-01T14:07:58.620Z,63.92
2017-11-01T14:10:25.229Z,15.85
2017-11-01T14:12:52.507Z,15.20
2017-11-01T14:15:19.166Z,18.77
2017-11-01T14:17:45.623Z,23.95
2017-11-01T14:20:13.208Z,19.65
2017-11-01T14:22:39.862Z,26.12
2017-11-01T14:25:07.138Z,17.58
2017-11-01T14:27:34.414Z,17.15
2017-11-01T14:30:01.381Z,17.17
2017-11-01T14:32:28.041Z,17.15
2017-11-01T14:34:54.705Z,16.08
2017-11-01T14:37:21.173Z,16.55
2017-11-01T14:39:47.713Z,15.77
2017-11-01T14:42:14.276Z,13.90
2017-11-01T14:44:40.749Z,14.30
2017-11-01T14:47:07.597Z,15.48
2017-11-01T14:49:34.153Z,15.52
2017-11-01T14:52:01.223Z,15.40
2017-11-01T14:54:27.783Z,15.30
2017-11-01T14:56:55.057Z,15.40
2017-11-01T14:59:21.507Z,14.50
2017-11-01T15:01:48.904Z,19.00
2017-11-01T15:04:15.374Z,15.85
2017-11-01T15:06:42.632Z,15.53
2017-11-01T15:09:09.186Z,15.32
2017-11-01T15:11:42.181Z,15.70
2017-11-01T15:14:08.741Z,16.20
2017-11-01T15:16:35.296Z,15.27
2017-11-01T15:19:01.856Z,16.17
2017-11-01T15:21:28.412Z,14.48
2017-11-01T15:23:55.074Z,14.55
2017-11-01T15:26:22.756Z,15.43
2017-11-01T15:28:49.522Z,15.40
2017-11-01T15:31:16.285Z,15.35
2017-11-01T15:33:43.863Z,14.73
2017-11-01T15:36:11.090Z,14.90
2017-11-01T15:38:37.670Z,13.20
2017-11-01T15:41:08.377Z,14.25
2017-11-01T15:43:35.697Z,16.15
2017-11-01T15:46:02.285Z,14.98
2017-11-01T15:48:30.168Z,16.05
2017-11-01T15:50:58.060Z,17.20
2017-11-01T15:53:24.821Z,16.80
2017-11-01T15:55:52.200Z,18.95
2017-11-01T15:58:21.414Z,19.20
2017-11-01T16:00:48.181Z,22.00
2017-11-01T16:03:16.621Z,23.33
2017-11-01T16:05:44.061Z,14.50
2017-11-01T16:08:10.819Z,15.65
2017-11-01T16:10:40.163Z,17.58
2017-11-01T16:13:08.134Z,12.75
2017-11-01T16:15:37.864Z,12.57
2017-11-01T16:18:05.132Z,12.20
2017-11-01T16:20:32.510Z,16.45
2017-11-01T16:22:59.582Z,15.30
2017-11-01T16:25:27.373Z,12.82
2017-11-01T16:27:56.052Z,18.90
2017-11-01T16:30:24.367Z,13.50
2017-11-01T16:32:51.135Z,12.70
2017-11-01T16:35:18.302Z,12.77
2017-11-01T16:37:46.503Z,12.60
2017-11-01T16:40:13.464Z,12.77
2017-11-01T16:42:40.240Z,12.55
2017-11-01T16:45:07.001Z,12.90
2017-11-01T16:47:34.267Z,13.10
2017-11-01T16:50:05.122Z,12.47
2017-11-01T16:52:31.884Z,12.43
2017-11-01T16:54:58.629Z,11.70
2017-11-01T16:57:26.022Z,13.32
2017-11-01T16:59:53.089Z,19.60
2017-11-01T17:02:20.573Z,15.60
2017-11-01T17:04:47.232Z,28.02
2017-11-01T17:07:13.894Z,27.73
2017-11-01T17:09:42.292Z,25.05
2017-11-01T17:12:11.423Z,17.70
2017-11-01T17:14:39.701Z,13.05
2017-11-01T17:17:07.085Z,11.35
2017-11-01T17:19:34.154Z,12.05
2017-11-01T17:22:00.913Z,12.80
2017-11-01T17:24:28.289Z,15.68
2017-11-01T17:26:56.488Z,16.30
2017-11-01T17:29:23.250Z,16.23
2017-11-01T17:31:49.807Z,13.88
2017-11-01T17:34:16.572Z,13.45
2017-11-01T17:36:43.131Z,24.55
2017-11-01T17:39:10.793Z,22.83
2017-11-01T17:41:37.475Z,21.17
2017-11-01T17:44:04.137Z,17.80
2017-11-01T17:46:30.793Z,13.45
2017-11-01T17:48:58.171Z,13.17
2017-11-01T17:51:24.729Z,13.02
2017-11-01T17:53:52.312Z,12.50
2017-11-01T17:56:20.850Z,12.57
2017-11-01T17:58:48.394Z,12.85
2017-11-01T18:01:16.181Z,12.60
2017-11-01T18:03:43.760Z,12.43
2017-11-01T18:06:11.486Z,28.02
2017-11-01T18:08:38.512Z,11.23
2017-11-01T18:11:05.051Z,11.12
2017-11-01T18:13:32.452Z,11.32
2017-11-01T18:15:59.220Z,68.07
2017-11-01T18:18:26.080Z,69.70
2017-11-01T18:20:52.742Z,28.92
2017-11-01T18:23:19.397Z,27.55
2017-11-01T18:25:46.773Z,26.90
2017-11-01T18:28:14.155Z,37.78
2017-11-01T18:30:40.639Z,22.45
2017-11-01T18:33:07.159Z,13.60
2017-11-01T18:35:34.439Z,14.57
2017-11-01T18:38:01.003Z,12.35
2017-11-01T18:40:27.568Z,13.57
2017-11-01T18:42:54.029Z,19.55
2017-11-01T18:45:20.575Z,16.35
2017-11-01T18:47:47.247Z,15.07
2017-11-01T18:50:13.994Z,18.40
2017-11-01T18:52:40.965Z,18.58
2017-11-01T18:55:07.623Z,18.80
2017-11-01T18:57:34.289Z,17.70
2017-11-01T19:00:01.053Z,18.37
2017-11-01T19:02:27.622Z,18.37
2017-11-01T19:04:54.163Z,18.75
2017-11-01T19:07:21.542Z,18.85
2017-11-01T19:09:48.612Z,18.50
2017-11-01T19:12:15.578Z,19.62
2017-11-01T19:14:42.242Z,19.75
2017-11-01T19:17:08.679Z,19.27
2017-11-01T19:19:35.932Z,20.50
2017-11-01T19:22:02.735Z,19.92
2017-11-01T19:24:29.674Z,20.60
2017-11-01T19:26:56.976Z,19.87
2017-11-01T19:29:23.942Z,18.23
2017-11-01T19:31:51.218Z,17.90
2017-11-01T19:34:19.107Z,16.48
2017-11-01T19:36:45.869Z,16.73
2017-11-01T19:39:13.040Z,17.00
2017-11-01T19:41:40.007Z,16.52
2017-11-01T19:44:07.897Z,18.67
2017-11-01T19:46:34.863Z,19.52
2017-11-01T19:49:01.652Z,18.70
2017-11-01T19:51:28.249Z,19.73
2017-11-01T19:53:55.665Z,106.53
2017-11-01T19:56:23.354Z,131.80
2017-11-01T19:58:50.012Z,69.45
2017-11-01T20:01:18.880Z,84.07
2017-11-01T20:03:45.986Z,66.40
2017-11-01T20:06:12.761Z,44.35
2017-11-01T20:08:39.689Z,49.55
2017-11-01T20:11:07.096Z,43.78
2017-11-01T20:13:33.969Z,38.80
2017-11-01T20:16:00.524Z,38.83
2017-11-01T20:18:27.077Z,43.40
2017-11-01T20:20:56.848Z,45.90
2017-11-01T20:23:24.184Z,40.28
2017-11-01T20:25:52.591Z,41.90
2017-11-01T20:28:19.141Z,37.20
2017-11-01T20:30:47.260Z,35.80
2017-11-01T20:33:14.374Z,34.72
2017-11-01T20:35:41.380Z,34.53
2017-11-01T20:38:09.159Z,30.10
2017-11-01T20:40:37.878Z,31.02
2017-11-01T20:43:04.730Z,29.23
2017-11-01T20:45:32.826Z,25.12
2017-11-01T20:48:01.330Z,25.70
2017-11-01T20:50:28.814Z,22.45
2017-11-01T20:52:57.382Z,19.48
2017-11-01T20:55:26.579Z,16.48
2017-11-01T20:57:53.184Z,16.73
2017-11-01T21:00:19.948Z,17.98
2017-11-01T21:02:46.508Z,13.38
2017-11-01T21:05:13.272Z,10.80
2017-11-01T21:07:40.751Z,11.12
2017-11-01T21:10:07.407Z,11.40
2017-11-01T21:12:34.375Z,11.25
2017-11-01T21:15:01.016Z,11.20
2017-11-01T21:17:28.414Z,11.07
2017-11-01T21:19:55.279Z,11.40
2017-11-01T21:22:22.246Z,9.35
2017-11-01T21:24:49.111Z,9.35
2017-11-01T21:27:15.651Z,9.00
2017-11-01T21:29:43.047Z,9.40
2017-11-01T21:32:10.527Z,9.20
2017-11-01T21:34:38.719Z,8.50
2017-11-01T21:37:06.094Z,8.52
2017-11-01T21:39:33.549Z,8.85
2017-11-01T21:42:00.953Z,8.43
2017-11-01T21:44:27.510Z,7.80
2017-11-01T21:46:54.275Z,8.50
2017-11-01T21:49:20.936Z,8.43
2017-11-01T21:51:47.492Z,8.27
2017-11-01T21:54:14.159Z,7.80
2017-11-01T21:56:40.712Z,7.80
2017-11-01T21:59:07.270Z,8.82
2017-11-01T22:01:35.955Z,10.13
2017-11-01T22:04:03.321Z,10.13
2017-11-01T22:06:30.709Z,9.35
2017-11-01T22:08:57.969Z,8.50
2017-11-01T22:11:24.568Z,7.72
2017-11-01T22:13:51.124Z,9.02
2017-11-01T22:16:17.682Z,8.10
2017-11-01T22:18:44.443Z,7.97
2017-11-01T22:21:10.965Z,8.40
2017-11-01T22:23:37.562Z,7.70
2017-11-01T22:26:04.321Z,7.32
2017-11-01T22:28:31.087Z,8.15
2017-11-01T22:30:57.744Z,7.18
2017-11-01T22:33:25.021Z,7.00
2017-11-01T22:35:51.582Z,7.43
2017-11-01T22:38:18.136Z,9.15
2017-11-01T22:40:45.206Z,13.75
2017-11-01T22:43:12.416Z,9.85
2017-11-01T22:45:39.042Z,7.80
2017-11-01T22:48:05.702Z,8.98
2017-11-01T22:50:32.362Z,8.25
2017-11-01T22:52:58.919Z,8.27
2017-11-01T22:55:25.481Z,10.20
2017-11-01T22:57:52.035Z,8.95
2017-11-01T23:00:19.312Z,9.35
2017-11-01T23:02:45.870Z,9.73
2017-11-01T23:05:12.535Z,7.82
2017-11-01T23:07:39.089Z,7.25
2017-11-01T23:10:05.599Z,7.30
2017-11-01T23:12:32.306Z,6.90
2017-11-01T23:14:58.974Z,6.93
2017-11-01T23:17:26.172Z,6.97
2017-11-01T23:19:52.802Z,6.90
2017-11-01T23:22:19.269Z,5.80
2017-11-01T23:24:45.919Z,6.32
2017-11-01T23:27:12.478Z,6.30
2017-11-01T23:29:39.138Z,6.53
2017-11-01T23:32:05.638Z,6.68
2017-11-01T23:34:34.201Z,6.10
2017-11-01T23:37:00.668Z,6.25
2017-11-01T23:39:27.320Z,6.20
2017-11-01T23:41:54.184Z,6.30
2017-11-01T23:44:20.944Z,6.05
2017-11-01T23:46:47.447Z,6.00
2017-11-01T23:49:13.957Z,6.22
2017-11-01T23:51:40.446Z,6.60
2017-11-01T23:54:06.944Z,6.15
2017-11-01T23:56:33.530Z,6.20
2017-11-01T23:59:00.089Z,6.07
